sensor_id;sensor_type;location;lat;lon;timestamp;temperature;humidity
59282;DHT22;45054;52.062;10.010;2024-01-27T00:01:43;5.40;99.90
59282;DHT22;45054;52.062;10.010;2024-01-27T00:04:08;5.40;99.90
59282;DHT22;45054;52.062;10.010;2024-01-27T00:06:34;5.40;99.90
59282;DHT22;45054;52.062;10.010;2024-01-27T00:09:00;5.40;99.90
59282;DHT22;45054;52.062;10.010;2024-01-27T00:11:25;5.40;99.90
59282;DHT22;45054;52.062;10.010;2024-01-27T00:13:51;5.40;99.90
59282;DHT22;45054;52.062;10.010;2024-01-27T00:16:18;5.40;99.90
59282;DHT22;45054;52.062;10.010;2024-01-27T00:18:43;5.30;99.90
59282;DHT22;45054;52.062;10.010;2024-01-27T00:21:09;5.30;99.90
59282;DHT22;45054;52.062;10.010;2024-01-27T00:23:35;5.30;99.90
59282;DHT22;45054;52.062;10.010;2024-01-27T00:26:00;5.40;99.90
59282;DHT22;45054;52.062;10.010;2024-01-27T00:28:26;5.30;99.90
59282;DHT22;45054;52.062;10.010;2024-01-27T00:30:52;5.30;99.90
59282;DHT22;45054;52.062;10.010;2024-01-27T00:33:19;5.20;99.90
59282;DHT22;45054;52.062;10.010;2024-01-27T00:35:44;5.20;99.90
59282;DHT22;45054;52.062;10.010;2024-01-27T00:38:10;5.20;99.90
59282;DHT22;45054;52.062;10.010;2024-01-27T00:40:35;5.20;99.90
59282;DHT22;45054;52.062;10.010;2024-01-27T00:43:02;5.20;99.90
59282;DHT22;45054;52.062;10.010;2024-01-27T00:45:27;5.20;99.90
59282;DHT22;45054;52.062;10.010;2024-01-27T00:47:53;5.10;99.90
59282;DHT22;45054;52.062;10.010;2024-01-27T00:50:20;5.10;99.90
59282;DHT22;45054;52.062;10.010;2024-01-27T00:52:45;5.10;99.90
59282;DHT22;45054;52.062;10.010;2024-01-27T00:55:11;5.10;99.90
59282;DHT22;45054;52.062;10.010;2024-01-27T00:57:37;5.10;99.90
59282;DHT22;45054;52.062;10.010;2024-01-27T01:00:03;5.10;99.90
59282;DHT22;45054;52.062;10.010;2024-01-27T01:02:29;5.10;99.90
59282;DHT22;45054;52.062;10.010;2024-01-27T01:04:55;5.10;99.90
59282;DHT22;45054;52.062;10.010;2024-01-27T01:07:22;5.10;99.90
59282;DHT22;45054;52.062;10.010;2024-01-27T01:09:47;5.10;99.90
59282;DHT22;45054;52.062;10.010;2024-01-27T01:12:13;5.10;99.90
59282;DHT22;45054;52.062;10.010;2024-01-27T01:14:38;5.10;99.90
59282;DHT22;45054;52.062;10.010;2024-01-27T01:17:04;5.10;99.90
59282;DHT22;45054;52.062;10.010;2024-01-27T01:19:29;5.00;99.90
59282;DHT22;45054;52.062;10.010;2024-01-27T01:21:55;5.00;99.90
59282;DHT22;45054;52.062;10.010;2024-01-27T01:24:22;5.10;99.90
59282;DHT22;45054;52.062;10.010;2024-01-27T01:26:47;5.10;99.90
59282;DHT22;45054;52.062;10.010;2024-01-27T01:29:13;5.10;99.90
59282;DHT22;45054;52.062;10.010;2024-01-27T01:31:41;5.10;99.90
59282;DHT22;45054;52.062;10.010;2024-01-27T01:34:07;5.10;99.90
59282;DHT22;45054;52.062;10.010;2024-01-27T01:36:32;5.00;99.90
59282;DHT22;45054;52.062;10.010;2024-01-27T01:38:58;5.00;99.90
59282;DHT22;45054;52.062;10.010;2024-01-27T01:41:25;5.00;99.90
59282;DHT22;45054;52.062;10.010;2024-01-27T01:43:50;5.00;99.90
59282;DHT22;45054;52.062;10.010;2024-01-27T01:46:16;5.00;99.90
59282;DHT22;45054;52.062;10.010;2024-01-27T01:48:42;5.00;99.90
59282;DHT22;45054;52.062;10.010;2024-01-27T01:51:08;5.00;99.90
59282;DHT22;45054;52.062;10.010;2024-01-27T01:53:34;5.00;99.90
59282;DHT22;45054;52.062;10.010;2024-01-27T01:56:00;4.90;99.90
59282;DHT22;45054;52.062;10.010;2024-01-27T01:58:27;4.90;99.90
59282;DHT22;45054;52.062;10.010;2024-01-27T02:00:53;4.90;99.90
59282;DHT22;45054;52.062;10.010;2024-01-27T02:03:18;4.80;99.90
59282;DHT22;45054;52.062;10.010;2024-01-27T02:05:44;4.80;99.90
59282;DHT22;45054;52.062;10.010;2024-01-27T02:08:09;4.80;99.90
59282;DHT22;45054;52.062;10.010;2024-01-27T02:10:35;4.80;99.90
59282;DHT22;45054;52.062;10.010;2024-01-27T02:13:01;4.80;99.90
59282;DHT22;45054;52.062;10.010;2024-01-27T02:15:27;4.80;99.90
59282;DHT22;45054;52.062;10.010;2024-01-27T02:17:53;4.70;99.90
59282;DHT22;45054;52.062;10.010;2024-01-27T02:20:19;4.70;99.90
59282;DHT22;45054;52.062;10.010;2024-01-27T02:22:44;4.70;99.90
59282;DHT22;45054;52.062;10.010;2024-01-27T02:25:11;4.70;99.90
59282;DHT22;45054;52.062;10.010;2024-01-27T02:27:37;4.70;99.90
59282;DHT22;45054;52.062;10.010;2024-01-27T02:30:03;4.70;99.90
59282;DHT22;45054;52.062;10.010;2024-01-27T02:32:28;4.70;99.90
59282;DHT22;45054;52.062;10.010;2024-01-27T02:34:54;4.70;99.90
59282;DHT22;45054;52.062;10.010;2024-01-27T02:37:19;4.70;99.90
59282;DHT22;45054;52.062;10.010;2024-01-27T02:39:45;4.60;99.90
59282;DHT22;45054;52.062;10.010;2024-01-27T02:42:12;4.60;99.90
59282;DHT22;45054;52.062;10.010;2024-01-27T02:44:37;4.50;99.90
59282;DHT22;45054;52.062;10.010;2024-01-27T02:47:03;4.60;99.90
59282;DHT22;45054;52.062;10.010;2024-01-27T02:49:28;4.50;99.90
59282;DHT22;45054;52.062;10.010;2024-01-27T02:51:54;4.60;99.90
59282;DHT22;45054;52.062;10.010;2024-01-27T02:54:20;4.50;99.90
59282;DHT22;45054;52.062;10.010;2024-01-27T02:56:45;4.60;99.90
59282;DHT22;45054;52.062;10.010;2024-01-27T02:59:13;4.50;99.90
59282;DHT22;45054;52.062;10.010;2024-01-27T03:01:38;4.50;99.90
59282;DHT22;45054;52.062;10.010;2024-01-27T03:04:04;4.50;99.90
59282;DHT22;45054;52.062;10.010;2024-01-27T03:06:30;4.40;99.90
59282;DHT22;45054;52.062;10.010;2024-01-27T03:08:55;4.40;99.90
59282;DHT22;45054;52.062;10.010;2024-01-27T03:11:21;4.50;99.90
59282;DHT22;45054;52.062;10.010;2024-01-27T03:13:46;4.40;99.90
59282;DHT22;45054;52.062;10.010;2024-01-27T03:16:13;4.40;99.90
59282;DHT22;45054;52.062;10.010;2024-01-27T03:18:39;4.50;99.90
59282;DHT22;45054;52.062;10.010;2024-01-27T03:21:06;4.40;99.90
59282;DHT22;45054;52.062;10.010;2024-01-27T03:23:31;4.40;99.90
59282;DHT22;45054;52.062;10.010;2024-01-27T03:25:57;4.50;99.90
59282;DHT22;45054;52.062;10.010;2024-01-27T03:28:22;4.40;99.90
59282;DHT22;45054;52.062;10.010;2024-01-27T03:30:48;4.40;99.90
59282;DHT22;45054;52.062;10.010;2024-01-27T03:33:15;4.40;99.90
59282;DHT22;45054;52.062;10.010;2024-01-27T03:35:40;4.40;99.90
59282;DHT22;45054;52.062;10.010;2024-01-27T03:38:06;4.40;99.90
59282;DHT22;45054;52.062;10.010;2024-01-27T03:40:31;4.40;99.90
59282;DHT22;45054;52.062;10.010;2024-01-27T03:42:57;4.40;99.90
59282;DHT22;45054;52.062;10.010;2024-01-27T03:45:23;4.40;99.90
59282;DHT22;45054;52.062;10.010;2024-01-27T03:47:48;4.40;99.90
59282;DHT22;45054;52.062;10.010;2024-01-27T03:50:15;4.40;99.90
59282;DHT22;45054;52.062;10.010;2024-01-27T03:52:41;4.40;99.90
59282;DHT22;45054;52.062;10.010;2024-01-27T03:55:07;4.40;99.90
59282;DHT22;45054;52.062;10.010;2024-01-27T03:57:33;4.30;99.90
59282;DHT22;45054;52.062;10.010;2024-01-27T03:59:58;4.30;99.90
59282;DHT22;45054;52.062;10.010;2024-01-27T04:02:24;4.20;99.90
59282;DHT22;45054;52.062;10.010;2024-01-27T04:04:49;4.20;99.90
59282;DHT22;45054;52.062;10.010;2024-01-27T04:07:16;4.20;99.90
59282;DHT22;45054;52.062;10.010;2024-01-27T04:09:42;4.20;99.90
59282;DHT22;45054;52.062;10.010;2024-01-27T04:12:07;4.20;99.90
59282;DHT22;45054;52.062;10.010;2024-01-27T04:14:33;4.20;99.90
59282;DHT22;45054;52.062;10.010;2024-01-27T04:16:59;4.20;99.90
59282;DHT22;45054;52.062;10.010;2024-01-27T04:19:24;4.20;99.90
59282;DHT22;45054;52.062;10.010;2024-01-27T04:21:50;4.20;99.90
59282;DHT22;45054;52.062;10.010;2024-01-27T04:24:17;4.10;99.90
59282;DHT22;45054;52.062;10.010;2024-01-27T04:26:43;4.20;99.90
59282;DHT22;45054;52.062;10.010;2024-01-27T04:29:08;4.20;99.90
59282;DHT22;45054;52.062;10.010;2024-01-27T04:31:39;4.10;99.90
59282;DHT22;45054;52.062;10.010;2024-01-27T04:34:04;4.10;99.90
59282;DHT22;45054;52.062;10.010;2024-01-27T04:36:30;4.20;99.90
59282;DHT22;45054;52.062;10.010;2024-01-27T04:38:56;4.10;99.90
59282;DHT22;45054;52.062;10.010;2024-01-27T04:41:23;4.10;99.90
59282;DHT22;45054;52.062;10.010;2024-01-27T04:43:48;4.10;99.90
59282;DHT22;45054;52.062;10.010;2024-01-27T04:46:14;4.10;99.90
59282;DHT22;45054;52.062;10.010;2024-01-27T04:48:39;4.10;99.90
59282;DHT22;45054;52.062;10.010;2024-01-27T04:51:05;4.10;99.90
59282;DHT22;45054;52.062;10.010;2024-01-27T04:53:30;4.10;99.90
59282;DHT22;45054;52.062;10.010;2024-01-27T04:55:56;4.10;99.90
59282;DHT22;45054;52.062;10.010;2024-01-27T04:58:23;4.10;99.90
59282;DHT22;45054;52.062;10.010;2024-01-27T05:00:48;4.10;99.90
59282;DHT22;45054;52.062;10.010;2024-01-27T05:03:14;4.10;99.90
59282;DHT22;45054;52.062;10.010;2024-01-27T05:05:41;4.10;99.90
59282;DHT22;45054;52.062;10.010;2024-01-27T05:08:06;4.10;99.90
59282;DHT22;45054;52.062;10.010;2024-01-27T05:10:32;4.10;99.90
59282;DHT22;45054;52.062;10.010;2024-01-27T05:12:57;4.10;99.90
59282;DHT22;45054;52.062;10.010;2024-01-27T05:15:24;4.10;99.90
59282;DHT22;45054;52.062;10.010;2024-01-27T05:17:50;4.10;99.90
59282;DHT22;45054;52.062;10.010;2024-01-27T05:20:15;4.10;99.90
59282;DHT22;45054;52.062;10.010;2024-01-27T05:22:41;4.10;99.90
59282;DHT22;45054;52.062;10.010;2024-01-27T05:25:07;4.20;99.90
59282;DHT22;45054;52.062;10.010;2024-01-27T05:27:33;4.10;99.90
59282;DHT22;45054;52.062;10.010;2024-01-27T05:29:59;4.10;99.90
59282;DHT22;45054;52.062;10.010;2024-01-27T05:32:25;4.10;99.90
59282;DHT22;45054;52.062;10.010;2024-01-27T05:34:51;4.10;99.90
59282;DHT22;45054;52.062;10.010;2024-01-27T05:37:16;4.20;99.90
59282;DHT22;45054;52.062;10.010;2024-01-27T05:39:42;4.10;99.90
59282;DHT22;45054;52.062;10.010;2024-01-27T05:42:08;4.10;99.90
59282;DHT22;45054;52.062;10.010;2024-01-27T05:44:33;4.10;99.90
59282;DHT22;45054;52.062;10.010;2024-01-27T05:46:59;4.10;99.90
59282;DHT22;45054;52.062;10.010;2024-01-27T05:49:26;4.10;99.90
59282;DHT22;45054;52.062;10.010;2024-01-27T05:51:51;4.10;99.90
59282;DHT22;45054;52.062;10.010;2024-01-27T05:54:17;4.10;99.90
59282;DHT22;45054;52.062;10.010;2024-01-27T05:56:42;4.10;99.90
59282;DHT22;45054;52.062;10.010;2024-01-27T05:59:08;4.10;99.90
59282;DHT22;45054;52.062;10.010;2024-01-27T06:01:33;4.00;99.90
59282;DHT22;45054;52.062;10.010;2024-01-27T06:03:59;4.00;99.90
59282;DHT22;45054;52.062;10.010;2024-01-27T06:06:26;4.00;99.90
59282;DHT22;45054;52.062;10.010;2024-01-27T06:08:51;4.00;99.90
59282;DHT22;45054;52.062;10.010;2024-01-27T06:11:23;4.00;99.90
59282;DHT22;45054;52.062;10.010;2024-01-27T06:13:48;4.00;99.90
59282;DHT22;45054;52.062;10.010;2024-01-27T06:16:14;3.90;99.90
59282;DHT22;45054;52.062;10.010;2024-01-27T06:18:39;3.90;99.90
59282;DHT22;45054;52.062;10.010;2024-01-27T06:21:05;3.90;99.90
59282;DHT22;45054;52.062;10.010;2024-01-27T06:23:32;3.90;99.90
59282;DHT22;45054;52.062;10.010;2024-01-27T06:25:58;3.80;99.90
59282;DHT22;45054;52.062;10.010;2024-01-27T06:28:23;3.80;99.90
59282;DHT22;45054;52.062;10.010;2024-01-27T06:30:49;3.80;99.90
59282;DHT22;45054;52.062;10.010;2024-01-27T06:33:14;3.80;99.90
59282;DHT22;45054;52.062;10.010;2024-01-27T06:35:40;3.80;99.90
59282;DHT22;45054;52.062;10.010;2024-01-27T06:38:05;3.80;99.90
59282;DHT22;45054;52.062;10.010;2024-01-27T06:40:32;3.80;99.90
59282;DHT22;45054;52.062;10.010;2024-01-27T06:42:58;3.80;99.90
59282;DHT22;45054;52.062;10.010;2024-01-27T06:45:23;3.80;99.90
59282;DHT22;45054;52.062;10.010;2024-01-27T06:47:49;3.90;99.90
59282;DHT22;45054;52.062;10.010;2024-01-27T06:50:15;3.80;99.90
59282;DHT22;45054;52.062;10.010;2024-01-27T06:52:40;3.80;99.90
59282;DHT22;45054;52.062;10.010;2024-01-27T06:55:06;3.80;99.90
59282;DHT22;45054;52.062;10.010;2024-01-27T06:57:33;3.80;99.90
59282;DHT22;45054;52.062;10.010;2024-01-27T06:59:58;3.80;99.90
59282;DHT22;45054;52.062;10.010;2024-01-27T07:02:24;3.80;99.90
59282;DHT22;45054;52.062;10.010;2024-01-27T07:04:50;3.80;99.90
59282;DHT22;45054;52.062;10.010;2024-01-27T07:07:16;3.70;99.90
59282;DHT22;45054;52.062;10.010;2024-01-27T07:09:41;3.70;99.90
59282;DHT22;45054;52.062;10.010;2024-01-27T07:12:07;3.70;99.90
59282;DHT22;45054;52.062;10.010;2024-01-27T07:14:34;3.80;99.90
59282;DHT22;45054;52.062;10.010;2024-01-27T07:17:00;3.80;99.90
59282;DHT22;45054;52.062;10.010;2024-01-27T07:19:25;3.80;99.90
59282;DHT22;45054;52.062;10.010;2024-01-27T07:21:51;3.70;99.90
59282;DHT22;45054;52.062;10.010;2024-01-27T07:24:16;3.70;99.90
59282;DHT22;45054;52.062;10.010;2024-01-27T07:26:42;3.70;99.90
59282;DHT22;45054;52.062;10.010;2024-01-27T07:29:07;3.70;99.90
59282;DHT22;45054;52.062;10.010;2024-01-27T07:31:37;3.70;99.90
59282;DHT22;45054;52.062;10.010;2024-01-27T07:34:02;3.70;99.90
59282;DHT22;45054;52.062;10.010;2024-01-27T07:36:28;3.70;99.90
59282;DHT22;45054;52.062;10.010;2024-01-27T07:38:53;3.70;99.90
59282;DHT22;45054;52.062;10.010;2024-01-27T07:41:19;3.70;99.90
59282;DHT22;45054;52.062;10.010;2024-01-27T07:43:44;3.70;99.90
59282;DHT22;45054;52.062;10.010;2024-01-27T07:46:10;3.70;99.90
59282;DHT22;45054;52.062;10.010;2024-01-27T07:48:37;3.70;99.90
59282;DHT22;45054;52.062;10.010;2024-01-27T07:51:03;3.60;99.90
59282;DHT22;45054;52.062;10.010;2024-01-27T07:53:29;3.60;99.90
59282;DHT22;45054;52.062;10.010;2024-01-27T07:55:54;3.60;99.90
59282;DHT22;45054;52.062;10.010;2024-01-27T07:58:20;3.60;99.90
59282;DHT22;45054;52.062;10.010;2024-01-27T08:00:45;3.50;99.90
59282;DHT22;45054;52.062;10.010;2024-01-27T08:03:11;3.50;99.90
59282;DHT22;45054;52.062;10.010;2024-01-27T08:05:38;3.50;99.90
59282;DHT22;45054;52.062;10.010;2024-01-27T08:08:04;3.50;99.90
59282;DHT22;45054;52.062;10.010;2024-01-27T08:10:29;3.40;99.90
59282;DHT22;45054;52.062;10.010;2024-01-27T08:12:55;3.50;99.90
59282;DHT22;45054;52.062;10.010;2024-01-27T08:15:21;3.50;99.90
59282;DHT22;45054;52.062;10.010;2024-01-27T08:17:46;3.50;99.90
59282;DHT22;45054;52.062;10.010;2024-01-27T08:20:12;3.50;99.90
59282;DHT22;45054;52.062;10.010;2024-01-27T08:22:39;3.50;99.90
59282;DHT22;45054;52.062;10.010;2024-01-27T08:25:06;3.50;99.90
59282;DHT22;45054;52.062;10.010;2024-01-27T08:27:32;3.50;99.90
59282;DHT22;45054;52.062;10.010;2024-01-27T08:29:57;3.60;99.90
59282;DHT22;45054;52.062;10.010;2024-01-27T08:32:23;3.60;99.90
59282;DHT22;45054;52.062;10.010;2024-01-27T08:34:48;3.60;99.90
59282;DHT22;45054;52.062;10.010;2024-01-27T08:37:15;3.60;99.90
59282;DHT22;45054;52.062;10.010;2024-01-27T08:39:42;3.60;99.90
59282;DHT22;45054;52.062;10.010;2024-01-27T08:42:08;3.70;99.90
59282;DHT22;45054;52.062;10.010;2024-01-27T08:44:33;3.70;99.90
59282;DHT22;45054;52.062;10.010;2024-01-27T08:46:59;3.70;99.90
59282;DHT22;45054;52.062;10.010;2024-01-27T08:49:24;3.70;99.90
59282;DHT22;45054;52.062;10.010;2024-01-27T08:51:51;3.80;99.90
59282;DHT22;45054;52.062;10.010;2024-01-27T08:54:17;3.80;99.90
59282;DHT22;45054;52.062;10.010;2024-01-27T08:56:44;3.80;99.90
59282;DHT22;45054;52.062;10.010;2024-01-27T08:59:09;3.80;99.90
59282;DHT22;45054;52.062;10.010;2024-01-27T09:01:35;3.90;99.90
59282;DHT22;45054;52.062;10.010;2024-01-27T09:04:00;3.90;99.90
59282;DHT22;45054;52.062;10.010;2024-01-27T09:06:26;3.90;99.90
59282;DHT22;45054;52.062;10.010;2024-01-27T09:08:51;4.00;99.90
59282;DHT22;45054;52.062;10.010;2024-01-27T09:11:17;4.00;99.90
59282;DHT22;45054;52.062;10.010;2024-01-27T09:13:44;4.00;99.90
59282;DHT22;45054;52.062;10.010;2024-01-27T09:16:10;4.10;99.90
59282;DHT22;45054;52.062;10.010;2024-01-27T09:18:35;4.10;99.90
59282;DHT22;45054;52.062;10.010;2024-01-27T09:21:01;4.20;99.90
59282;DHT22;45054;52.062;10.010;2024-01-27T09:23:26;4.20;99.90
59282;DHT22;45054;52.062;10.010;2024-01-27T09:25:52;4.20;99.90
59282;DHT22;45054;52.062;10.010;2024-01-27T09:28:17;4.30;99.90
59282;DHT22;45054;52.062;10.010;2024-01-27T09:30:44;4.30;99.90
59282;DHT22;45054;52.062;10.010;2024-01-27T09:33:11;4.30;99.90
59282;DHT22;45054;52.062;10.010;2024-01-27T09:35:36;4.30;99.90
59282;DHT22;45054;52.062;10.010;2024-01-27T09:38:02;4.40;99.90
59282;DHT22;45054;52.062;10.010;2024-01-27T09:40:27;4.40;99.90
59282;DHT22;45054;52.062;10.010;2024-01-27T09:42:54;4.40;99.90
59282;DHT22;45054;52.062;10.010;2024-01-27T09:45:22;4.50;99.90
59282;DHT22;45054;52.062;10.010;2024-01-27T09:47:49;4.50;99.90
59282;DHT22;45054;52.062;10.010;2024-01-27T09:50:17;4.60;99.90
59282;DHT22;45054;52.062;10.010;2024-01-27T09:52:43;4.60;99.90
59282;DHT22;45054;52.062;10.010;2024-01-27T09:55:09;4.60;99.90
59282;DHT22;45054;52.062;10.010;2024-01-27T09:57:38;4.70;99.90
59282;DHT22;45054;52.062;10.010;2024-01-27T10:00:04;4.70;99.90
59282;DHT22;45054;52.062;10.010;2024-01-27T10:02:31;4.70;99.90
59282;DHT22;45054;52.062;10.010;2024-01-27T10:05:00;4.70;99.90
59282;DHT22;45054;52.062;10.010;2024-01-27T10:07:26;4.80;99.90
59282;DHT22;45054;52.062;10.010;2024-01-27T10:09:52;4.80;99.90
59282;DHT22;45054;52.062;10.010;2024-01-27T10:12:20;4.90;99.90
59282;DHT22;45054;52.062;10.010;2024-01-27T10:14:46;4.90;99.90
59282;DHT22;45054;52.062;10.010;2024-01-27T10:17:12;4.90;99.90
59282;DHT22;45054;52.062;10.010;2024-01-27T10:19:37;5.00;99.90
59282;DHT22;45054;52.062;10.010;2024-01-27T10:22:04;5.00;99.90
59282;DHT22;45054;52.062;10.010;2024-01-27T10:24:31;5.00;99.90
59282;DHT22;45054;52.062;10.010;2024-01-27T10:26:59;5.10;99.90
59282;DHT22;45054;52.062;10.010;2024-01-27T10:29:25;5.20;99.90
59282;DHT22;45054;52.062;10.010;2024-01-27T10:31:50;5.20;99.90
59282;DHT22;45054;52.062;10.010;2024-01-27T10:34:19;5.20;99.90
59282;DHT22;45054;52.062;10.010;2024-01-27T10:36:45;5.20;99.90
59282;DHT22;45054;52.062;10.010;2024-01-27T10:39:16;5.30;99.90
59282;DHT22;45054;52.062;10.010;2024-01-27T10:41:44;5.30;99.90
59282;DHT22;45054;52.062;10.010;2024-01-27T10:44:14;5.30;99.90
59282;DHT22;45054;52.062;10.010;2024-01-27T10:46:40;5.40;99.90
59282;DHT22;45054;52.062;10.010;2024-01-27T10:49:09;5.40;99.90
59282;DHT22;45054;52.062;10.010;2024-01-27T10:51:37;5.50;99.90
59282;DHT22;45054;52.062;10.010;2024-01-27T10:54:05;5.50;99.90
59282;DHT22;45054;52.062;10.010;2024-01-27T10:56:33;5.50;99.90
59282;DHT22;45054;52.062;10.010;2024-01-27T10:58:59;5.60;99.90
59282;DHT22;45054;52.062;10.010;2024-01-27T11:01:26;5.60;99.90
59282;DHT22;45054;52.062;10.010;2024-01-27T11:03:55;5.70;99.90
59282;DHT22;45054;52.062;10.010;2024-01-27T11:06:22;5.70;99.90
59282;DHT22;45054;52.062;10.010;2024-01-27T11:08:49;5.70;99.90
59282;DHT22;45054;52.062;10.010;2024-01-27T11:11:15;5.80;99.90
59282;DHT22;45054;52.062;10.010;2024-01-27T11:13:42;5.80;99.90
59282;DHT22;45054;52.062;10.010;2024-01-27T11:16:15;5.90;99.90
59282;DHT22;45054;52.062;10.010;2024-01-27T11:18:42;5.90;99.90
59282;DHT22;45054;52.062;10.010;2024-01-27T11:21:13;5.90;99.90
59282;DHT22;45054;52.062;10.010;2024-01-27T11:23:39;6.00;99.90
59282;DHT22;45054;52.062;10.010;2024-01-27T11:26:05;6.10;99.90
59282;DHT22;45054;52.062;10.010;2024-01-27T11:28:31;6.20;99.90
59282;DHT22;45054;52.062;10.010;2024-01-27T11:30:58;6.20;99.90
59282;DHT22;45054;52.062;10.010;2024-01-27T11:33:28;6.20;99.90
59282;DHT22;45054;52.062;10.010;2024-01-27T11:36:00;6.20;99.90
59282;DHT22;45054;52.062;10.010;2024-01-27T11:38:25;6.30;99.90
59282;DHT22;45054;52.062;10.010;2024-01-27T11:40:51;6.30;99.90
59282;DHT22;45054;52.062;10.010;2024-01-27T11:43:16;6.30;99.90
59282;DHT22;45054;52.062;10.010;2024-01-27T11:45:42;6.40;99.90
59282;DHT22;45054;52.062;10.010;2024-01-27T11:48:09;6.40;99.90
59282;DHT22;45054;52.062;10.010;2024-01-27T11:50:34;6.50;99.90
59282;DHT22;45054;52.062;10.010;2024-01-27T11:53:00;6.50;99.90
59282;DHT22;45054;52.062;10.010;2024-01-27T11:55:26;6.60;99.90
59282;DHT22;45054;52.062;10.010;2024-01-27T11:57:51;6.60;99.90
59282;DHT22;45054;52.062;10.010;2024-01-27T12:00:17;6.70;99.90
59282;DHT22;45054;52.062;10.010;2024-01-27T12:02:43;6.70;99.90
59282;DHT22;45054;52.062;10.010;2024-01-27T12:05:10;6.70;99.90
59282;DHT22;45054;52.062;10.010;2024-01-27T12:07:36;6.70;99.90
59282;DHT22;45054;52.062;10.010;2024-01-27T12:10:02;6.70;99.90
59282;DHT22;45054;52.062;10.010;2024-01-27T12:12:27;6.80;99.90
59282;DHT22;45054;52.062;10.010;2024-01-27T12:14:53;6.80;99.90
59282;DHT22;45054;52.062;10.010;2024-01-27T12:17:19;6.80;99.90
59282;DHT22;45054;52.062;10.010;2024-01-27T12:19:50;6.80;99.90
59282;DHT22;45054;52.062;10.010;2024-01-27T12:22:24;6.90;99.90
59282;DHT22;45054;52.062;10.010;2024-01-27T12:24:51;6.80;99.90
59282;DHT22;45054;52.062;10.010;2024-01-27T12:27:16;7.00;99.90
59282;DHT22;45054;52.062;10.010;2024-01-27T12:29:42;7.00;99.90
59282;DHT22;45054;52.062;10.010;2024-01-27T12:32:08;7.00;99.90
59282;DHT22;45054;52.062;10.010;2024-01-27T12:34:39;7.10;99.90
59282;DHT22;45054;52.062;10.010;2024-01-27T12:37:05;7.00;99.90
59282;DHT22;45054;52.062;10.010;2024-01-27T12:39:32;7.10;99.90
59282;DHT22;45054;52.062;10.010;2024-01-27T12:41:57;7.10;99.90
59282;DHT22;45054;52.062;10.010;2024-01-27T12:44:23;7.10;99.90
59282;DHT22;45054;52.062;10.010;2024-01-27T12:46:49;7.20;99.90
59282;DHT22;45054;52.062;10.010;2024-01-27T12:49:14;7.20;99.90
59282;DHT22;45054;52.062;10.010;2024-01-27T12:51:40;7.20;99.90
59282;DHT22;45054;52.062;10.010;2024-01-27T12:54:05;7.30;99.90
59282;DHT22;45054;52.062;10.010;2024-01-27T12:56:32;7.20;99.90
59282;DHT22;45054;52.062;10.010;2024-01-27T12:58:58;7.30;99.90
59282;DHT22;45054;52.062;10.010;2024-01-27T13:01:23;7.30;99.90
59282;DHT22;45054;52.062;10.010;2024-01-27T13:03:49;7.30;99.90
59282;DHT22;45054;52.062;10.010;2024-01-27T13:06:14;7.40;99.90
59282;DHT22;45054;52.062;10.010;2024-01-27T13:08:40;7.40;99.90
59282;DHT22;45054;52.062;10.010;2024-01-27T13:11:06;7.50;99.90
59282;DHT22;45054;52.062;10.010;2024-01-27T13:13:33;7.50;99.90
59282;DHT22;45054;52.062;10.010;2024-01-27T13:15:58;7.50;99.90
59282;DHT22;45054;52.062;10.010;2024-01-27T13:18:24;7.50;99.90
59282;DHT22;45054;52.062;10.010;2024-01-27T13:20:49;7.60;99.90
59282;DHT22;45054;52.062;10.010;2024-01-27T13:23:15;7.60;99.90
59282;DHT22;45054;52.062;10.010;2024-01-27T13:25:40;7.70;99.90
59282;DHT22;45054;52.062;10.010;2024-01-27T13:28:06;7.70;99.90
59282;DHT22;45054;52.062;10.010;2024-01-27T13:30:33;7.70;99.90
59282;DHT22;45054;52.062;10.010;2024-01-27T13:32:58;7.70;99.90
59282;DHT22;45054;52.062;10.010;2024-01-27T13:35:24;7.70;99.90
59282;DHT22;45054;52.062;10.010;2024-01-27T13:37:49;7.70;99.90
59282;DHT22;45054;52.062;10.010;2024-01-27T13:40:16;7.80;99.90
59282;DHT22;45054;52.062;10.010;2024-01-27T13:42:41;7.80;99.90
59282;DHT22;45054;52.062;10.010;2024-01-27T13:45:07;7.80;99.90
59282;DHT22;45054;52.062;10.010;2024-01-27T13:47:35;7.70;99.90
59282;DHT22;45054;52.062;10.010;2024-01-27T13:50:00;7.70;99.90
59282;DHT22;45054;52.062;10.010;2024-01-27T13:52:26;7.70;99.90
59282;DHT22;45054;52.062;10.010;2024-01-27T13:54:51;7.80;99.90
59282;DHT22;45054;52.062;10.010;2024-01-27T13:57:17;7.80;99.90
59282;DHT22;45054;52.062;10.010;2024-01-27T13:59:43;7.80;99.90
59282;DHT22;45054;52.062;10.010;2024-01-27T14:02:08;7.80;99.90
59282;DHT22;45054;52.062;10.010;2024-01-27T14:04:35;7.80;99.90
59282;DHT22;45054;52.062;10.010;2024-01-27T14:07:01;7.80;99.90
59282;DHT22;45054;52.062;10.010;2024-01-27T14:09:26;7.90;99.90
59282;DHT22;45054;52.062;10.010;2024-01-27T14:11:52;8.00;99.90
59282;DHT22;45054;52.062;10.010;2024-01-27T14:14:17;8.00;99.90
59282;DHT22;45054;52.062;10.010;2024-01-27T14:16:44;8.00;99.90
59282;DHT22;45054;52.062;10.010;2024-01-27T14:19:09;7.90;99.90
59282;DHT22;45054;52.062;10.010;2024-01-27T14:21:36;7.90;99.90
59282;DHT22;45054;52.062;10.010;2024-01-27T14:24:02;7.90;99.90
59282;DHT22;45054;52.062;10.010;2024-01-27T14:26:27;7.90;99.90
59282;DHT22;45054;52.062;10.010;2024-01-27T14:28:53;7.90;99.90
59282;DHT22;45054;52.062;10.010;2024-01-27T14:31:19;7.90;99.90
59282;DHT22;45054;52.062;10.010;2024-01-27T14:33:44;7.90;99.90
59282;DHT22;45054;52.062;10.010;2024-01-27T14:36:10;7.90;99.90
59282;DHT22;45054;52.062;10.010;2024-01-27T14:38:37;7.90;99.90
59282;DHT22;45054;52.062;10.010;2024-01-27T14:41:03;7.90;99.90
59282;DHT22;45054;52.062;10.010;2024-01-27T14:43:28;8.00;99.90
59282;DHT22;45054;52.062;10.010;2024-01-27T14:45:54;7.90;99.90
59282;DHT22;45054;52.062;10.010;2024-01-27T14:48:20;8.00;99.90
59282;DHT22;45054;52.062;10.010;2024-01-27T14:50:45;7.90;99.90
59282;DHT22;45054;52.062;10.010;2024-01-27T14:53:11;7.80;99.90
59282;DHT22;45054;52.062;10.010;2024-01-27T14:55:38;7.80;99.90
59282;DHT22;45054;52.062;10.010;2024-01-27T14:58:03;7.80;99.90
59282;DHT22;45054;52.062;10.010;2024-01-27T15:00:29;7.70;99.90
59282;DHT22;45054;52.062;10.010;2024-01-27T15:02:55;7.70;99.90
59282;DHT22;45054;52.062;10.010;2024-01-27T15:05:20;7.70;99.90
59282;DHT22;45054;52.062;10.010;2024-01-27T15:07:46;7.60;99.90
59282;DHT22;45054;52.062;10.010;2024-01-27T15:10:12;7.70;99.90
59282;DHT22;45054;52.062;10.010;2024-01-27T15:12:39;7.70;99.90
59282;DHT22;45054;52.062;10.010;2024-01-27T15:15:05;7.70;99.90
59282;DHT22;45054;52.062;10.010;2024-01-27T15:17:30;7.70;99.90
59282;DHT22;45054;52.062;10.010;2024-01-27T15:19:56;7.70;99.90
59282;DHT22;45054;52.062;10.010;2024-01-27T15:22:22;7.60;99.90